Pilot Butte, Canada
Current Conditions -  °F | °C
As of 7:00 AM on Wednesday 22 Oct 2014 (Local Time) from CYQR Reporting Station
Broken Clouds Broken Clouds  
Wind Chill: 41°   Ceiling: 8900
Heat Index: 46°   Visibility: 15mi
Dew Point: 45°   Wind: 12mph
Humidity: 93%   Direction: 250°WSW
Pressure: 29.65"   Gusts: NA
Location:  50.48°N, 104.42°W
Report Text: CYQR 221300Z 25010KT 15SM BKN089 08/07 A2965 RMK AC7 ACC EMBD SLP051
Loading
Personal Weather Stations






























Interactive Weather Map
Tropical Storm Tracking
New forecast layout! Learn more

10-Day Weather Forecast

Advertisements
Track Severe Weather on mobile